createdAt,value
2022-09-30T00:01:28.009Z,99523.22
2022-09-30T00:06:37.100Z,99531.19
2022-09-30T00:11:55.152Z,99538.19
2022-09-30T00:17:04.452Z,99540.25
2022-09-30T00:22:26.231Z,99544.66
2022-09-30T00:27:40.515Z,99539.72
2022-09-30T00:32:51.716Z,99540.97
2022-09-30T00:38:08.417Z,99540.56
2022-09-30T00:43:21.924Z,99539.31
2022-09-30T00:48:37.906Z,99540.72
2022-09-30T00:54:02.666Z,99534.97
2022-09-30T00:59:25.545Z,99542.38
2022-09-30T01:04:38.050Z,99555.69
2022-09-30T01:09:50.967Z,99564.63
2022-09-30T01:15:05.226Z,99565.72
2022-09-30T01:20:55.069Z,99567.22
2022-09-30T01:26:56.224Z,99560.66
2022-09-30T01:32:18.147Z,99560.38
2022-09-30T01:37:43.267Z,99561.59
2022-09-30T01:43:03.996Z,99570.53
2022-09-30T01:48:27.819Z,99565.84
2022-09-30T01:53:46.970Z,99571.22
2022-09-30T01:58:59.761Z,99564.63
2022-09-30T02:04:22.285Z,99564.06
2022-09-30T02:09:34.931Z,99580.09
2022-09-30T02:14:50.139Z,99583.53
2022-09-30T02:20:33.888Z,99583.94
2022-09-30T02:25:47.560Z,99579.97
2022-09-30T02:30:58.239Z,99587.91
2022-09-30T02:36:26.129Z,99591.88
2022-09-30T02:41:39.779Z,99587.88
2022-09-30T02:47:00.135Z,99601.75
2022-09-30T02:52:27.099Z,99613.09
2022-09-30T02:57:47.248Z,99619.28
2022-09-30T03:02:59.580Z,99619.56
2022-09-30T03:08:26.825Z,99620.25
2022-09-30T03:14:12.981Z,99625.59
2022-09-30T03:19:38.095Z,99620.91
2022-09-30T03:25:12.911Z,99621.84
2022-09-30T03:30:36.785Z,99620.38
2022-09-30T03:35:55.849Z,99632.69
2022-09-30T03:41:18.941Z,99638.72
2022-09-30T03:46:29.682Z,99633.50
2022-09-30T03:51:50.758Z,99640.38
2022-09-30T03:57:32.818Z,99656.16
2022-09-30T04:02:42.168Z,99659.94
2022-09-30T04:07:51.531Z,99654.88
2022-09-30T04:13:12.341Z,99663.94
2022-09-30T04:18:33.060Z,99670.31
2022-09-30T04:23:43.889Z,99677.44
2022-09-30T04:29:06.728Z,99686.38
2022-09-30T04:34:20.337Z,99684.94
2022-09-30T04:39:27.523Z,99693.72
2022-09-30T04:44:49.391Z,99689.72
2022-09-30T04:49:59.763Z,99682.19
2022-09-30T04:55:16.098Z,99684.09
2022-09-30T05:00:24.937Z,99702.44
2022-09-30T05:05:35.016Z,99707.06
2022-09-30T05:11:07.863Z,99708.72
2022-09-30T05:16:24.225Z,99715.59
2022-09-30T05:21:37.574Z,99712.28
2022-09-30T05:27:12.751Z,99727.09
2022-09-30T05:32:32.810Z,99725.28
2022-09-30T05:37:43.732Z,99727.66
2022-09-30T05:42:57.206Z,99718.75
2022-09-30T05:48:07.477Z,99734.13
2022-09-30T05:53:13.224Z,99746.75
2022-09-30T05:58:43.212Z,99740.09
2022-09-30T06:03:52.208Z,99754.16
2022-09-30T06:09:02.742Z,99759.53
2022-09-30T06:14:11.266Z,99765.63
2022-09-30T06:19:22.145Z,99767.06
2022-09-30T06:24:39.420Z,99771.25
2022-09-30T06:29:49.438Z,99778.56
2022-09-30T06:35:01.377Z,99787.13
2022-09-30T06:40:10.347Z,99784.22
2022-09-30T06:45:30.350Z,99782.78
2022-09-30T06:51:01.502Z,99805.72
2022-09-30T06:56:09.106Z,99810.41
2022-09-30T07:01:32.432Z,99809.75
2022-09-30T07:06:48.709Z,99814.75
2022-09-30T07:11:59.678Z,99821.06
2022-09-30T07:17:25.275Z,99827.81
2022-09-30T07:22:43.308Z,99836.91
2022-09-30T07:28:29.102Z,99836.94
2022-09-30T07:44:28.394Z,99841.63
2022-09-30T07:49:59.256Z,99854.16
2022-09-30T07:55:24.312Z,99855.84
2022-09-30T08:00:44.286Z,99862.41
2022-09-30T08:06:12.718Z,99867.06
2022-09-30T08:11:26.944Z,99870.69
2022-09-30T08:16:32.192Z,99878.41
2022-09-30T08:21:47.565Z,99886.47
2022-09-30T08:27:08.686Z,99894.53
2022-09-30T08:32:17.727Z,99901.97
2022-09-30T08:37:26.449Z,99901.78
2022-09-30T08:43:04.247Z,99908.84
2022-09-30T08:48:30.467Z,99900.56
2022-09-30T08:53:39.492Z,99901.72
2022-09-30T08:59:00.119Z,99899.53
2022-09-30T09:04:25.817Z,99906.25
2022-09-30T09:10:18.752Z,99900.66
2022-09-30T09:15:53.192Z,99894.19
2022-09-30T09:21:06.326Z,99895.63
2022-09-30T09:26:30.808Z,99899.97
2022-09-30T09:31:54.260Z,99896.16
2022-09-30T09:37:19.310Z,99895.78
2022-09-30T09:43:07.669Z,99888.63
2022-09-30T09:48:18.385Z,99895.03
2022-09-30T09:54:12.655Z,99900.53
2022-09-30T09:59:26.212Z,99898.06
2022-09-30T10:04:44.419Z,99897.47
2022-09-30T10:09:49.556Z,99893.91
2022-09-30T10:15:20.688Z,99888.91
2022-09-30T10:20:39.066Z,99883.81
2022-09-30T10:25:57.931Z,99886.50
2022-09-30T10:31:10.170Z,99870.00
2022-09-30T10:36:19.863Z,99879.59
2022-09-30T10:41:41.396Z,99874.94
2022-09-30T10:46:55.653Z,99872.69
2022-09-30T10:52:05.644Z,99862.19
2022-09-30T10:57:17.618Z,99867.09
2022-09-30T11:02:53.265Z,99864.38
2022-09-30T11:08:21.509Z,99873.13
2022-09-30T11:13:52.706Z,99874.28
2022-09-30T11:19:11.430Z,99867.91
2022-09-30T11:24:30.415Z,99864.97
2022-09-30T11:29:50.986Z,99858.75
2022-09-30T11:35:14.029Z,99858.63
2022-09-30T11:40:50.879Z,99856.72
2022-09-30T11:46:44.629Z,99845.31
2022-09-30T11:52:11.496Z,99853.25
2022-09-30T11:57:25.007Z,99846.06
2022-09-30T12:02:49.360Z,99847.91
2022-09-30T12:08:03.619Z,99853.25
2022-09-30T12:13:16.395Z,99852.19
2022-09-30T12:18:52.555Z,99863.13
2022-09-30T12:24:22.828Z,99868.78
2022-09-30T12:29:51.215Z,99861.59
2022-09-30T12:35:28.756Z,99858.63
2022-09-30T12:40:59.771Z,99865.81
2022-09-30T12:46:19.698Z,99858.31
2022-09-30T12:51:32.251Z,99861.91
2022-09-30T12:56:40.265Z,99870.53
2022-09-30T13:01:49.764Z,99872.72
2022-09-30T13:07:22.374Z,99861.63
2022-09-30T13:12:30.735Z,99862.16
2022-09-30T13:17:36.893Z,99860.97
2022-09-30T13:23:20.163Z,99857.31
2022-09-30T13:28:46.107Z,99855.06
2022-09-30T13:34:10.421Z,99863.28
2022-09-30T13:39:29.815Z,99860.19
2022-09-30T13:44:42.375Z,99857.50
2022-09-30T13:50:03.666Z,99864.59
2022-09-30T13:55:27.120Z,99876.72
2022-09-30T14:00:48.630Z,99873.28
2022-09-30T14:06:20.902Z,99864.88
2022-09-30T14:11:57.193Z,99866.69
2022-09-30T14:17:43.173Z,99869.53
2022-09-30T14:22:48.579Z,99868.63
2022-09-30T14:28:19.552Z,99867.19
2022-09-30T14:33:48.721Z,99863.81
2022-09-30T14:39:00.731Z,99866.38
2022-09-30T14:44:25.621Z,99864.38
2022-09-30T14:49:36.617Z,99867.75
2022-09-30T14:55:14.663Z,99869.38
2022-09-30T15:00:37.031Z,99862.19
2022-09-30T15:05:46.062Z,99863.09
2022-09-30T15:11:08.774Z,99856.06
2022-09-30T15:16:36.508Z,99858.56
2022-09-30T15:21:51.123Z,99857.19
2022-09-30T15:26:58.379Z,99861.38
2022-09-30T15:32:25.806Z,99858.09
2022-09-30T15:37:49.570Z,99863.47
2022-09-30T15:43:01.593Z,99859.72
2022-09-30T15:48:39.631Z,99868.53
2022-09-30T15:53:53.493Z,99861.50
2022-09-30T15:58:59.445Z,99861.75
2022-09-30T16:04:20.270Z,99870.38
2022-09-30T16:09:41.218Z,99864.34
2022-09-30T16:15:05.061Z,99866.56
2022-09-30T16:20:30.927Z,99868.97
2022-09-30T16:25:38.031Z,99873.31
2022-09-30T16:30:50.787Z,99879.94
2022-09-30T16:36:00.792Z,99869.13
2022-09-30T16:41:15.420Z,99871.31
2022-09-30T16:46:22.264Z,99877.31
2022-09-30T16:51:28.342Z,99877.03
2022-09-30T16:56:39.235Z,99881.16
2022-09-30T17:01:48.965Z,99890.59
2022-09-30T17:07:00.961Z,99886.81
2022-09-30T17:12:07.773Z,99890.94
2022-09-30T17:17:26.670Z,99895.03
2022-09-30T17:22:35.758Z,99891.09
2022-09-30T17:27:49.325Z,99896.81
2022-09-30T17:33:11.900Z,99898.16
2022-09-30T17:38:20.950Z,99902.06
2022-09-30T17:43:33.270Z,99904.97
2022-09-30T17:48:39.758Z,99899.06
2022-09-30T17:53:45.130Z,99906.22
2022-09-30T17:58:57.763Z,99895.81
2022-09-30T18:04:15.324Z,99882.81
2022-09-30T18:09:29.404Z,99891.81
2022-09-30T18:14:48.516Z,99895.34
2022-09-30T18:19:57.791Z,99885.81
2022-09-30T18:25:24.995Z,99895.28
2022-09-30T18:30:31.587Z,99888.69
2022-09-30T18:35:43.274Z,99886.84
2022-09-30T18:41:05.841Z,99883.88
2022-09-30T18:46:30.061Z,99892.38
2022-09-30T18:51:35.750Z,99898.53
2022-09-30T18:56:47.094Z,99900.16
2022-09-30T19:02:03.205Z,99900.06
2022-09-30T19:07:08.506Z,99892.16
2022-09-30T19:12:15.602Z,99898.97
2022-09-30T19:17:23.828Z,99903.97
2022-09-30T19:22:32.146Z,99898.50
2022-09-30T19:27:42.489Z,99900.25
2022-09-30T19:32:58.544Z,99904.44
2022-09-30T19:38:11.580Z,99902.56
2022-09-30T19:43:23.848Z,99903.16
2022-09-30T19:48:36.756Z,99911.59
2022-09-30T19:53:46.411Z,99909.91
2022-09-30T19:59:17.404Z,99918.34
2022-09-30T20:04:32.412Z,99912.03
2022-09-30T20:09:46.357Z,99921.31
2022-09-30T20:15:30.668Z,99912.53
2022-09-30T20:20:51.958Z,99909.66
2022-09-30T20:26:05.930Z,99910.25
2022-09-30T20:31:20.924Z,99915.25
2022-09-30T20:36:37.939Z,99913.91
2022-09-30T20:42:01.838Z,99911.03
2022-09-30T20:47:35.101Z,99903.47
2022-09-30T20:52:47.736Z,99903.22
2022-09-30T21:03:33.361Z,99896.63
2022-09-30T21:08:51.375Z,99890.72
2022-09-30T21:13:56.791Z,99887.69
2022-09-30T21:19:08.249Z,99896.00
2022-09-30T21:24:26.612Z,99894.47
2022-09-30T21:29:47.161Z,99896.00
2022-09-30T21:40:29.292Z,99912.41
2022-09-30T21:46:09.945Z,99914.47
2022-09-30T21:51:16.675Z,99910.78
2022-09-30T21:56:25.241Z,99923.31
2022-09-30T22:01:36.887Z,99920.31
2022-09-30T22:06:52.976Z,99918.78
2022-09-30T22:12:13.233Z,99917.25
2022-09-30T22:17:21.190Z,99913.41
2022-09-30T22:22:29.639Z,99929.25
2022-09-30T22:27:58.779Z,99932.97
2022-09-30T22:33:23.439Z,99935.19
2022-09-30T22:38:33.691Z,99925.13
2022-09-30T22:43:46.824Z,99922.94
2022-09-30T22:49:03.892Z,99916.06
2022-09-30T22:54:13.315Z,99915.66
2022-09-30T22:59:24.492Z,99918.53
2022-09-30T23:04:34.214Z,99912.06
2022-09-30T23:09:47.299Z,99913.16
2022-09-30T23:14:59.390Z,99903.81
2022-09-30T23:20:21.599Z,99900.53
2022-09-30T23:25:32.399Z,99904.91
2022-09-30T23:30:39.561Z,99904.22
2022-09-30T23:35:48.692Z,99894.75
2022-09-30T23:40:55.970Z,99895.03
2022-09-30T23:46:14.848Z,99890.59
2022-09-30T23:51:20.162Z,99890.88
2022-09-30T23:56:26.196Z,99892.69
